createdAt,value
2019-06-08T00:01:38.387Z,17.47
2019-06-08T00:03:39.769Z,17.83
2019-06-08T00:05:41.155Z,17.13
2019-06-08T00:07:42.669Z,19.00
2019-06-08T00:09:44.070Z,18.13
2019-06-08T00:11:45.452Z,17.80
2019-06-08T00:13:46.871Z,19.50
2019-06-08T00:15:48.254Z,18.50
2019-06-08T00:17:49.655Z,18.10
2019-06-08T00:19:51.049Z,17.50
2019-06-08T00:21:52.412Z,19.03
2019-06-08T00:23:53.828Z,17.90
2019-06-08T00:25:55.208Z,18.97
2019-06-08T00:27:56.591Z,18.97
2019-06-08T00:29:57.983Z,18.30
2019-06-08T00:31:59.362Z,19.57
2019-06-08T00:34:00.803Z,19.30
2019-06-08T00:36:02.367Z,18.90
2019-06-08T00:38:03.749Z,19.37
2019-06-08T00:40:06.375Z,18.60
2019-06-08T00:42:07.732Z,17.93
2019-06-08T00:44:09.159Z,20.00
2019-06-08T00:46:10.546Z,21.63
2019-06-08T00:48:11.912Z,21.00
2019-06-08T00:50:13.667Z,21.73
2019-06-08T00:52:15.060Z,21.83
2019-06-08T00:54:17.371Z,26.50
2019-06-08T00:56:19.445Z,22.93
2019-06-08T00:58:22.012Z,23.27
2019-06-08T01:00:24.515Z,22.03
2019-06-08T01:02:26.791Z,21.87
2019-06-08T01:04:29.128Z,23.03
2019-06-08T01:06:30.613Z,23.43
2019-06-08T01:08:32.029Z,22.97
2019-06-08T01:10:33.438Z,22.73
2019-06-08T01:12:35.020Z,23.90
2019-06-08T01:14:36.415Z,21.63
2019-06-08T01:16:37.832Z,22.07
2019-06-08T01:18:39.214Z,18.43
2019-06-08T01:20:40.621Z,17.10
2019-06-08T01:22:41.999Z,10.00
2019-06-08T01:24:43.376Z,9.23
2019-06-08T01:26:44.775Z,8.37
2019-06-08T01:28:46.134Z,6.43
2019-06-08T01:30:47.629Z,6.77
2019-06-08T01:32:49.027Z,5.43
2019-06-08T01:34:50.394Z,4.63
2019-06-08T01:36:51.759Z,3.50
2019-06-08T01:38:53.187Z,3.40
2019-06-08T01:40:54.548Z,3.40
2019-06-08T01:42:55.934Z,2.57
2019-06-08T01:44:57.340Z,2.63
2019-06-08T01:46:58.753Z,2.57
2019-06-08T01:49:00.150Z,2.17
2019-06-08T01:51:01.579Z,2.67
2019-06-08T01:53:03.521Z,2.70
2019-06-08T01:55:05.526Z,2.00
2019-06-08T01:57:06.917Z,2.40
2019-06-08T01:59:08.414Z,2.33
2019-06-08T02:01:09.888Z,2.10
2019-06-08T02:03:11.270Z,2.23
2019-06-08T02:05:13.240Z,2.30
2019-06-08T02:07:14.644Z,2.47
2019-06-08T02:09:16.010Z,2.50
2019-06-08T02:11:17.435Z,2.83
2019-06-08T02:13:18.929Z,2.33
2019-06-08T02:15:22.887Z,1.87
2019-06-08T02:17:25.147Z,2.10
2019-06-08T02:19:26.676Z,1.97
2019-06-08T02:21:28.863Z,1.87
2019-06-08T02:23:31.124Z,1.63
2019-06-08T02:25:33.547Z,1.90
2019-06-08T02:27:35.791Z,1.70
2019-06-08T02:29:37.407Z,1.57
2019-06-08T02:31:38.824Z,1.80
2019-06-08T02:33:40.517Z,1.80
2019-06-08T02:35:42.056Z,1.70
2019-06-08T02:37:43.471Z,1.93
2019-06-08T02:39:44.857Z,1.87
2019-06-08T02:41:46.231Z,1.63
2019-06-08T02:43:47.636Z,1.53
2019-06-08T02:45:49.043Z,1.50
2019-06-08T02:47:50.397Z,2.00
2019-06-08T02:49:51.811Z,2.03
2019-06-08T02:51:54.210Z,1.57
2019-06-08T02:53:55.823Z,2.17
2019-06-08T02:55:57.433Z,1.60
2019-06-08T02:57:59.432Z,1.60
2019-06-08T03:00:02.353Z,2.10
2019-06-08T03:02:04.214Z,1.90
2019-06-08T03:04:05.675Z,2.10
2019-06-08T03:06:07.107Z,1.70
2019-06-08T03:08:10.187Z,1.90
2019-06-08T03:10:11.792Z,2.30
2019-06-08T03:12:16.191Z,1.93
2019-06-08T03:14:18.247Z,2.00
2019-06-08T03:16:19.664Z,2.00
2019-06-08T03:18:21.031Z,2.20
2019-06-08T03:20:22.408Z,1.80
2019-06-08T03:22:23.823Z,1.83
2019-06-08T03:24:25.191Z,2.07
2019-06-08T03:26:26.558Z,1.87
2019-06-08T03:28:27.997Z,2.40
2019-06-08T03:30:29.386Z,2.10
2019-06-08T03:32:30.740Z,1.83
2019-06-08T03:34:35.608Z,1.70
2019-06-08T03:36:40.342Z,1.80
2019-06-08T03:38:40.153Z,1.93
2019-06-08T03:40:43.445Z,1.83
2019-06-08T03:42:45.654Z,1.50
2019-06-08T03:44:47.009Z,1.90
2019-06-08T03:46:48.425Z,1.50
2019-06-08T03:48:49.800Z,1.40
2019-06-08T03:50:51.176Z,1.70
2019-06-08T03:52:52.605Z,1.60
2019-06-08T03:54:53.997Z,1.63
2019-06-08T03:56:55.369Z,1.60
2019-06-08T03:58:56.822Z,1.70
2019-06-08T04:00:58.253Z,1.57
2019-06-08T04:02:59.637Z,1.60
2019-06-08T04:05:01.024Z,1.40
2019-06-08T04:07:02.456Z,1.40
2019-06-08T04:09:05.825Z,1.20
2019-06-08T04:11:07.196Z,1.20
2019-06-08T04:13:11.308Z,1.20
2019-06-08T04:15:12.574Z,2.03
2019-06-08T04:17:13.983Z,1.40
2019-06-08T04:19:15.392Z,1.70
2019-06-08T04:21:16.820Z,2.10
2019-06-08T04:23:18.382Z,1.50
2019-06-08T04:25:19.879Z,1.50
2019-06-08T04:27:21.275Z,1.70
2019-06-08T04:29:22.665Z,2.37
2019-06-08T04:31:24.030Z,1.97
2019-06-08T04:33:25.403Z,2.10
2019-06-08T04:35:26.821Z,2.10
2019-06-08T04:37:28.207Z,2.07
2019-06-08T04:39:29.683Z,1.87
2019-06-08T04:41:31.138Z,1.97
2019-06-08T04:43:33.005Z,1.97
2019-06-08T04:45:34.386Z,1.60
2019-06-08T04:47:36.109Z,1.70
2019-06-08T04:49:38.467Z,2.23
2019-06-08T04:51:40.787Z,2.23
2019-06-08T04:53:43.260Z,1.60
2019-06-08T04:55:47.120Z,1.80
2019-06-08T04:57:50.706Z,1.57
2019-06-08T04:59:52.033Z,2.00
2019-06-08T05:01:53.405Z,1.53
2019-06-08T05:03:54.874Z,2.23
2019-06-08T05:05:56.304Z,1.70
2019-06-08T05:07:57.672Z,2.07
2019-06-08T05:09:59.071Z,1.70
2019-06-08T05:12:00.477Z,1.30
2019-06-08T05:14:02.068Z,1.77
2019-06-08T05:16:03.581Z,1.60
2019-06-08T05:18:05.359Z,1.53
2019-06-08T05:20:07.143Z,1.53
2019-06-08T05:22:08.588Z,0.80
2019-06-08T05:24:10.014Z,1.50
2019-06-08T05:26:11.400Z,1.10
2019-06-08T05:28:12.815Z,1.40
2019-06-08T05:30:20.911Z,1.70
2019-06-08T05:32:22.311Z,1.40
2019-06-08T05:34:23.711Z,1.40
2019-06-08T05:36:25.096Z,0.97
2019-06-08T05:38:26.495Z,1.20
2019-06-08T05:40:27.863Z,0.80
2019-06-08T05:42:29.292Z,1.37
2019-06-08T05:44:30.680Z,1.00
2019-06-08T05:46:32.049Z,1.07
2019-06-08T05:48:33.455Z,1.20
2019-06-08T05:50:34.956Z,2.40
2019-06-08T05:52:36.346Z,1.20
2019-06-08T05:54:37.745Z,1.20
2019-06-08T05:56:39.923Z,1.47
2019-06-08T05:58:41.846Z,1.40
2019-06-08T06:00:44.227Z,1.23
2019-06-08T06:02:46.938Z,1.10
2019-06-08T06:04:52.159Z,1.20
2019-06-08T06:06:51.911Z,1.20
2019-06-08T06:08:53.355Z,1.23
2019-06-08T06:10:54.772Z,1.13
2019-06-08T06:12:56.140Z,0.90
2019-06-08T06:14:57.565Z,1.40
2019-06-08T06:16:58.922Z,1.30
2019-06-08T06:19:00.310Z,1.57
2019-06-08T06:21:11.180Z,1.00
2019-06-08T06:23:05.176Z,1.10
2019-06-08T06:25:08.238Z,1.40
2019-06-08T06:27:09.648Z,1.40
2019-06-08T06:29:11.457Z,1.20
2019-06-08T06:31:12.853Z,1.30
2019-06-08T06:33:14.253Z,1.83
2019-06-08T06:35:15.732Z,1.20
2019-06-08T06:37:17.121Z,0.87
2019-06-08T06:39:18.549Z,1.17
2019-06-08T06:41:19.915Z,1.20
2019-06-08T06:43:21.341Z,1.10
2019-06-08T06:45:22.763Z,1.43
2019-06-08T06:47:24.733Z,1.50
2019-06-08T06:49:26.141Z,1.27
2019-06-08T06:51:27.538Z,1.10
2019-06-08T06:53:29.131Z,1.23
2019-06-08T06:55:30.503Z,1.30
2019-06-08T06:57:35.816Z,1.47
2019-06-08T06:59:35.219Z,1.40
2019-06-08T07:01:36.682Z,1.63
2019-06-08T07:03:38.277Z,1.50
2019-06-08T07:05:39.644Z,1.37
2019-06-08T07:07:41.023Z,1.27
2019-06-08T07:09:42.552Z,1.10
2019-06-08T07:11:44.511Z,1.20
2019-06-08T07:13:46.608Z,1.27
2019-06-08T07:15:52.667Z,1.10
2019-06-08T07:17:53.127Z,1.10
2019-06-08T07:19:54.793Z,0.70
2019-06-08T07:21:56.377Z,1.20
2019-06-08T07:23:58.785Z,1.57
2019-06-08T07:26:00.317Z,1.13
2019-06-08T07:28:01.722Z,0.93
2019-06-08T07:30:04.871Z,1.43
2019-06-08T07:32:06.360Z,1.30
2019-06-08T07:34:07.727Z,1.10
2019-06-08T07:36:09.185Z,1.67
2019-06-08T07:38:10.608Z,1.10
2019-06-08T07:40:12.409Z,1.40
2019-06-08T07:42:13.779Z,1.20
2019-06-08T07:44:15.157Z,1.43
2019-06-08T07:46:16.571Z,1.20
2019-06-08T07:48:17.952Z,1.60
2019-06-08T07:50:19.447Z,1.20
2019-06-08T07:52:20.850Z,1.17
2019-06-08T07:54:22.230Z,1.40
2019-06-08T07:56:23.703Z,1.20
2019-06-08T07:58:25.179Z,1.40
2019-06-08T08:00:26.638Z,1.10
2019-06-08T08:02:28.004Z,1.40
2019-06-08T08:04:29.437Z,1.57
2019-06-08T08:06:30.836Z,1.40
2019-06-08T08:08:32.213Z,1.23
2019-06-08T08:10:33.667Z,1.30
2019-06-08T08:12:35.074Z,1.00
2019-06-08T08:14:36.447Z,0.90
2019-06-08T08:16:37.824Z,2.07
2019-06-08T08:18:39.355Z,1.40
2019-06-08T08:20:40.727Z,1.60
2019-06-08T08:22:42.140Z,1.30
2019-06-08T08:24:43.522Z,1.67
2019-06-08T08:26:44.907Z,1.23
2019-06-08T08:28:50.081Z,2.33
2019-06-08T08:30:51.132Z,1.07
2019-06-08T08:32:54.462Z,1.50
2019-06-08T08:34:58.745Z,1.30
2019-06-08T08:37:05.923Z,1.53
2019-06-08T08:39:08.203Z,1.67
2019-06-08T08:41:10.833Z,1.73
2019-06-08T08:43:12.563Z,1.67
2019-06-08T08:45:14.468Z,1.40
2019-06-08T08:47:18.520Z,1.10
2019-06-08T08:49:19.217Z,1.20
2019-06-08T08:51:20.751Z,1.40
2019-06-08T08:53:22.227Z,1.70
2019-06-08T08:55:23.669Z,1.40
2019-06-08T08:57:25.069Z,2.40
2019-06-08T08:59:28.048Z,1.80
2019-06-08T09:01:29.774Z,2.57
2019-06-08T09:03:33.683Z,1.63
2019-06-08T09:05:34.539Z,1.90
2019-06-08T09:07:38.226Z,1.70
2019-06-08T09:09:39.659Z,1.70
2019-06-08T09:11:41.674Z,1.40
2019-06-08T09:13:43.233Z,1.60
2019-06-08T09:15:44.665Z,1.30
2019-06-08T09:17:48.149Z,2.77
2019-06-08T09:19:49.455Z,1.53
2019-06-08T09:21:52.510Z,1.63
2019-06-08T09:23:55.748Z,1.80
2019-06-08T09:26:05.948Z,1.57
2019-06-08T09:28:04.672Z,1.70
2019-06-08T09:30:08.261Z,1.30
2019-06-08T09:32:09.541Z,1.70
2019-06-08T09:34:15.219Z,1.60
2019-06-08T09:36:14.293Z,1.60
2019-06-08T09:38:18.381Z,3.07
2019-06-08T09:40:19.181Z,1.33
2019-06-08T09:42:21.300Z,1.60
2019-06-08T09:44:23.041Z,1.53
2019-06-08T09:46:24.514Z,1.70
2019-06-08T09:48:28.572Z,1.37
2019-06-08T09:50:29.332Z,1.20
2019-06-08T09:52:30.764Z,1.37
2019-06-08T09:54:32.378Z,1.20
2019-06-08T09:56:33.862Z,1.73
2019-06-08T09:58:35.508Z,1.97
2019-06-08T10:00:37.887Z,1.53
2019-06-08T10:02:39.605Z,1.50
2019-06-08T10:04:41.139Z,1.37
2019-06-08T10:06:42.580Z,2.57
2019-06-08T10:08:44.236Z,2.00
2019-06-08T10:10:48.233Z,1.50
2019-06-08T10:12:49.077Z,1.40
2019-06-08T10:14:50.516Z,1.40
2019-06-08T10:16:52.164Z,1.50
2019-06-08T10:18:54.872Z,1.80
2019-06-08T10:20:59.593Z,2.13
2019-06-08T10:23:03.127Z,1.90
2019-06-08T10:25:08.754Z,1.50
2019-06-08T10:27:11.797Z,2.00
2019-06-08T10:29:13.035Z,2.10
2019-06-08T10:31:14.420Z,1.73
2019-06-08T10:33:18.256Z,1.40
2019-06-08T10:35:20.998Z,1.60
2019-06-08T10:37:22.501Z,2.03
2019-06-08T10:39:23.870Z,2.03
2019-06-08T10:41:27.653Z,2.20
2019-06-08T10:43:29.109Z,1.77
2019-06-08T10:45:30.558Z,2.00
2019-06-08T10:47:31.963Z,2.03
2019-06-08T10:49:33.410Z,1.70
2019-06-08T10:51:34.842Z,1.60
2019-06-08T10:53:48.227Z,1.60
2019-06-08T10:55:40.894Z,1.20
2019-06-08T10:57:42.421Z,1.50
2019-06-08T10:59:43.844Z,1.70
2019-06-08T11:01:45.361Z,1.70
2019-06-08T11:03:48.839Z,1.33
2019-06-08T11:05:51.401Z,1.37
2019-06-08T11:07:52.925Z,1.47
2019-06-08T11:09:54.460Z,1.40
2019-06-08T11:11:57.967Z,1.70
2019-06-08T11:14:00.937Z,1.60
2019-06-08T11:16:04.428Z,1.70
2019-06-08T11:18:09.971Z,1.67
2019-06-08T11:20:13.024Z,1.87
2019-06-08T11:22:14.974Z,2.73
2019-06-08T11:24:24.148Z,1.50
2019-06-08T11:26:24.291Z,1.60
2019-06-08T11:28:23.667Z,1.60
2019-06-08T11:30:28.078Z,1.90
2019-06-08T11:32:28.787Z,2.20
2019-06-08T11:34:30.287Z,1.37
2019-06-08T11:36:31.710Z,1.50
2019-06-08T11:38:33.164Z,2.00
2019-06-08T11:40:34.583Z,1.80
2019-06-08T11:42:38.640Z,2.00
2019-06-08T11:44:39.463Z,1.97
2019-06-08T11:46:42.660Z,2.10
2019-06-08T11:48:44.422Z,1.70
2019-06-08T11:50:48.872Z,1.63
2019-06-08T11:52:49.477Z,2.30
2019-06-08T11:54:51.074Z,1.77
2019-06-08T11:56:52.718Z,2.40
2019-06-08T11:58:57.927Z,2.80
2019-06-08T12:01:04.652Z,1.30
2019-06-08T12:03:08.431Z,1.27
2019-06-08T12:05:12.662Z,2.13
2019-06-08T12:07:14.018Z,1.97
2019-06-08T12:09:18.496Z,1.70
2019-06-08T12:11:23.046Z,2.00
2019-06-08T12:13:23.454Z,2.17
2019-06-08T12:15:25.080Z,2.07
2019-06-08T12:17:27.650Z,1.60
2019-06-08T12:19:31.603Z,2.00
2019-06-08T12:21:33.056Z,1.80
2019-06-08T12:23:34.613Z,1.73
2019-06-08T12:25:37.807Z,1.77
2019-06-08T12:27:40.397Z,2.30
2019-06-08T12:29:43.579Z,1.73
2019-06-08T12:31:45.187Z,2.50
2019-06-08T12:33:48.749Z,1.83
2019-06-08T12:35:50.351Z,1.70
2019-06-08T12:37:57.942Z,1.53
2019-06-08T12:39:57.993Z,1.63
2019-06-08T12:42:01.188Z,2.10
2019-06-08T12:44:04.035Z,1.60
2019-06-08T12:46:08.257Z,1.80
2019-06-08T12:48:14.649Z,1.90
2019-06-08T12:50:15.018Z,1.93
2019-06-08T12:52:21.851Z,1.60
2019-06-08T12:54:20.784Z,1.50
2019-06-08T12:56:24.193Z,1.97
2019-06-08T12:58:27.584Z,2.00
2019-06-08T13:00:29.247Z,1.53
2019-06-08T13:02:30.632Z,2.17
2019-06-08T13:04:32.134Z,1.57
2019-06-08T13:06:33.559Z,1.30
2019-06-08T13:08:34.964Z,2.00
2019-06-08T13:10:38.179Z,1.90
2019-06-08T13:12:40.961Z,2.13
2019-06-08T13:14:42.545Z,2.00
2019-06-08T13:16:53.284Z,1.60
2019-06-08T13:18:54.779Z,1.90
2019-06-08T13:20:58.994Z,1.70
2019-06-08T13:23:00.504Z,1.43
2019-06-08T13:25:19.188Z,1.60
2019-06-08T13:27:12.006Z,2.20
2019-06-08T13:29:12.562Z,1.50
2019-06-08T13:31:18.231Z,1.93
2019-06-08T13:33:18.388Z,2.27
2019-06-08T13:35:22.142Z,1.57
2019-06-08T13:37:23.089Z,1.70
2019-06-08T13:39:24.457Z,2.00
2019-06-08T13:41:29.034Z,1.77
2019-06-08T13:43:29.240Z,2.47
2019-06-08T13:45:30.608Z,2.67
2019-06-08T13:47:31.983Z,1.40
2019-06-08T13:49:33.392Z,1.87
2019-06-08T13:51:34.788Z,1.70
2019-06-08T13:53:38.301Z,1.60
2019-06-08T13:55:51.717Z,1.73
2019-06-08T13:57:42.770Z,1.80
2019-06-08T13:59:44.206Z,1.60
2019-06-08T14:01:47.712Z,2.03
2019-06-08T14:03:49.962Z,1.60
2019-06-08T14:05:51.513Z,1.53
2019-06-08T14:07:53.032Z,1.40
2019-06-08T14:09:54.409Z,1.90
2019-06-08T14:11:57.744Z,1.60
2019-06-08T14:14:01.233Z,1.30
2019-06-08T14:16:02.655Z,1.90
2019-06-08T14:18:04.275Z,2.03
2019-06-08T14:20:08.017Z,1.63
2019-06-08T14:22:10.692Z,2.07
2019-06-08T14:27:39.830Z,1.80
2019-06-08T14:29:41.391Z,1.87
2019-06-08T14:32:21.106Z,1.40
2019-06-08T14:34:31.219Z,2.20
2019-06-08T14:36:32.667Z,1.50
2019-06-08T14:38:38.686Z,1.97
2019-06-08T14:40:37.669Z,1.60
2019-06-08T14:42:39.310Z,1.40
2019-06-08T14:44:40.871Z,1.53
2019-06-08T14:46:42.263Z,1.87
2019-06-08T14:48:45.269Z,1.77
2019-06-08T14:50:48.039Z,2.00
2019-06-08T14:52:51.521Z,1.77
2019-06-08T14:54:53.031Z,2.67
2019-06-08T14:56:54.436Z,2.50
2019-06-08T14:58:57.638Z,1.70
2019-06-08T15:00:59.118Z,1.57
2019-06-08T15:03:00.610Z,1.17
2019-06-08T15:05:04.483Z,1.57
2019-06-08T15:07:09.341Z,1.93
2019-06-08T15:09:21.352Z,1.40
2019-06-08T15:11:23.363Z,1.50
2019-06-08T15:13:26.225Z,1.57
2019-06-08T15:15:30.082Z,1.53
2019-06-08T15:17:32.179Z,1.30
2019-06-08T15:19:37.037Z,1.40
2019-06-08T15:21:38.473Z,1.70
2019-06-08T15:23:41.316Z,1.50
2019-06-08T15:25:43.937Z,2.00
2019-06-08T15:27:47.723Z,2.00
2019-06-08T15:29:48.676Z,2.10
2019-06-08T15:31:50.119Z,1.40
2019-06-08T15:33:51.559Z,1.70
2019-06-08T15:35:53.009Z,1.50
2019-06-08T15:37:54.413Z,1.63
2019-06-08T15:39:55.822Z,1.70
2019-06-08T15:42:00.229Z,1.50
2019-06-08T15:44:02.904Z,2.20
2019-06-08T15:46:04.484Z,2.07
2019-06-08T15:48:07.977Z,1.70
2019-06-08T15:50:09.540Z,1.47
2019-06-08T15:52:10.965Z,1.63
2019-06-08T15:54:12.341Z,2.07
2019-06-08T15:56:14.391Z,1.50
2019-06-08T15:58:18.220Z,1.93
2019-06-08T16:00:19.834Z,2.13
2019-06-08T16:02:21.271Z,1.67
2019-06-08T16:04:23.446Z,1.73
2019-06-08T16:06:25.779Z,1.83
2019-06-08T16:08:27.872Z,2.03
2019-06-08T16:10:30.263Z,1.67
2019-06-08T16:12:33.156Z,2.03
2019-06-08T16:14:35.089Z,2.17
2019-06-08T16:16:36.672Z,2.23
2019-06-08T16:18:38.253Z,2.60
2019-06-08T16:20:39.697Z,1.87
2019-06-08T16:22:41.108Z,2.10
2019-06-08T16:24:42.577Z,2.57
2019-06-08T16:26:52.623Z,2.80
2019-06-08T16:28:47.599Z,2.03
2019-06-08T16:30:49.105Z,2.10
2019-06-08T16:32:50.524Z,4.37
2019-06-08T16:34:51.986Z,1.77
2019-06-08T16:36:53.462Z,1.87
2019-06-08T16:38:54.838Z,1.53
2019-06-08T16:40:56.226Z,1.50
2019-06-08T16:42:57.632Z,1.60
2019-06-08T16:44:59.087Z,1.63
2019-06-08T16:47:00.451Z,1.80
2019-06-08T16:49:01.962Z,1.80
2019-06-08T16:51:03.403Z,1.80
2019-06-08T16:53:04.805Z,1.43
2019-06-08T16:55:06.384Z,1.80
2019-06-08T16:57:10.802Z,1.40
2019-06-08T16:59:11.142Z,2.03
2019-06-08T17:01:12.554Z,1.97
2019-06-08T17:03:13.960Z,1.50
2019-06-08T17:05:15.402Z,1.90
2019-06-08T17:07:16.776Z,2.13
2019-06-08T17:09:18.177Z,1.80
2019-06-08T17:11:19.605Z,1.77
2019-06-08T17:13:20.997Z,1.50
2019-06-08T17:15:22.451Z,1.80
2019-06-08T17:17:23.848Z,2.10
2019-06-08T17:19:25.258Z,1.90
2019-06-08T17:21:26.779Z,1.90
2019-06-08T17:23:28.333Z,2.37
2019-06-08T17:25:30.611Z,2.03
2019-06-08T17:27:32.615Z,1.70
2019-06-08T17:29:34.903Z,2.00
2019-06-08T17:31:37.215Z,1.80
2019-06-08T17:33:39.415Z,2.43
2019-06-08T17:35:42.273Z,1.67
2019-06-08T17:37:43.962Z,1.93
2019-06-08T17:39:45.348Z,1.50
2019-06-08T17:41:46.802Z,1.67
2019-06-08T17:43:48.188Z,2.03
2019-06-08T17:45:49.659Z,2.23
2019-06-08T17:47:51.096Z,1.93
2019-06-08T17:49:52.891Z,2.33
2019-06-08T17:51:54.288Z,1.93
2019-06-08T17:53:55.706Z,2.60
2019-06-08T17:55:57.095Z,1.77
2019-06-08T17:57:58.490Z,1.80
2019-06-08T17:59:59.883Z,2.17
2019-06-08T18:02:01.300Z,2.40
2019-06-08T18:04:02.694Z,2.10
2019-06-08T18:06:07.162Z,1.80
2019-06-08T18:08:08.426Z,1.70
2019-06-08T18:10:09.921Z,2.00
2019-06-08T18:12:11.313Z,1.90
2019-06-08T18:14:13.199Z,1.70
2019-06-08T18:16:17.543Z,2.20
2019-06-08T18:18:19.130Z,1.90
2019-06-08T18:20:20.816Z,1.93
2019-06-08T18:22:22.180Z,2.47
2019-06-08T18:24:23.558Z,2.10
2019-06-08T18:26:24.970Z,2.23
2019-06-08T18:28:28.138Z,2.77
2019-06-08T18:30:29.814Z,2.23
2019-06-08T18:32:31.190Z,2.03
2019-06-08T18:34:32.577Z,2.00
2019-06-08T18:36:34.742Z,2.10
2019-06-08T18:38:39.806Z,2.10
2019-06-08T18:40:41.938Z,1.97
2019-06-08T18:42:44.622Z,1.77
2019-06-08T18:44:48.593Z,2.17
2019-06-08T18:46:50.190Z,2.37
2019-06-08T18:48:51.620Z,1.87
2019-06-08T18:50:53.017Z,2.20
2019-06-08T18:52:54.392Z,2.50
2019-06-08T18:54:57.689Z,2.23
2019-06-08T18:56:59.123Z,1.87
2019-06-08T18:59:00.499Z,1.90
2019-06-08T19:01:01.941Z,1.70
2019-06-08T19:03:07.000Z,2.17
2019-06-08T19:05:08.513Z,2.03
2019-06-08T19:07:09.879Z,2.47
2019-06-08T19:09:12.330Z,2.60
2019-06-08T19:11:13.893Z,1.70
2019-06-08T19:13:17.981Z,2.70
2019-06-08T19:15:24.786Z,1.70
2019-06-08T19:17:28.277Z,2.23
2019-06-08T19:19:31.423Z,2.00
2019-06-08T19:21:33.083Z,1.80
2019-06-08T19:23:34.462Z,1.90
2019-06-08T19:25:39.423Z,2.03
2019-06-08T19:27:43.033Z,2.37
2019-06-08T19:30:03.830Z,2.03
2019-06-08T19:32:07.303Z,1.70
2019-06-08T19:34:08.550Z,2.50
2019-06-08T19:36:10.320Z,2.13
2019-06-08T19:38:11.797Z,2.20
2019-06-08T19:40:13.685Z,2.00
2019-06-08T19:42:17.415Z,1.87
2019-06-08T19:44:18.483Z,2.73
2019-06-08T19:46:19.912Z,2.07
2019-06-08T19:48:21.293Z,2.10
2019-06-08T19:50:22.700Z,1.83
2019-06-08T19:52:24.125Z,2.30
2019-06-08T19:54:25.577Z,2.37
2019-06-08T19:56:28.220Z,2.20
2019-06-08T19:58:30.291Z,2.20
2019-06-08T20:00:31.929Z,1.90
2019-06-08T20:02:33.339Z,2.20
2019-06-08T20:04:34.769Z,1.90
2019-06-08T20:06:37.947Z,1.60
2019-06-08T20:08:39.512Z,2.60
2019-06-08T20:10:41.121Z,2.00
2019-06-08T20:12:43.581Z,2.30
2019-06-08T20:14:45.411Z,2.80
2019-06-08T20:16:49.358Z,2.30
2019-06-08T20:18:51.683Z,2.40
2019-06-08T20:20:54.542Z,2.50
2019-06-08T20:22:58.324Z,2.77
2019-06-08T20:24:59.439Z,3.03
2019-06-08T20:27:00.853Z,3.10
2019-06-08T20:29:12.221Z,2.40
2019-06-08T20:31:07.483Z,2.20
2019-06-08T20:35:19.384Z,2.60
2019-06-08T20:37:20.792Z,1.90
2019-06-08T20:39:22.178Z,2.70
2019-06-08T20:41:23.606Z,2.20
2019-06-08T20:43:24.971Z,2.70
2019-06-08T20:45:28.074Z,2.40
2019-06-08T20:47:29.795Z,2.30
2019-06-08T20:49:31.189Z,2.37
2019-06-08T20:51:32.559Z,2.53
2019-06-08T20:53:33.987Z,2.60
2019-06-08T20:55:40.052Z,1.90
2019-06-08T20:57:38.874Z,2.67
2019-06-08T20:59:40.339Z,2.57
2019-06-08T21:01:41.821Z,2.40
2019-06-08T21:03:43.652Z,2.63
2019-06-08T21:05:48.556Z,2.63
2019-06-08T21:07:55.767Z,2.60
2019-06-08T21:09:58.128Z,2.60
2019-06-08T21:11:59.768Z,2.70
2019-06-08T21:14:01.160Z,2.60
2019-06-08T21:16:02.850Z,2.93
2019-06-08T21:18:04.253Z,3.37
2019-06-08T21:20:08.398Z,3.60
2019-06-08T21:22:09.601Z,3.63
2019-06-08T21:24:11.127Z,5.07
2019-06-08T21:26:12.536Z,4.47
2019-06-08T21:28:14.021Z,3.73
2019-06-08T21:30:23.941Z,4.13
2019-06-08T21:32:21.547Z,4.40
2019-06-08T21:34:22.013Z,3.40
2019-06-08T21:36:23.446Z,3.63
2019-06-08T21:38:24.838Z,3.83
2019-06-08T21:40:28.145Z,3.20
2019-06-08T21:42:29.648Z,3.60
2019-06-08T21:44:31.045Z,3.80
2019-06-08T21:46:32.467Z,3.80
2019-06-08T21:48:33.880Z,4.10
2019-06-08T21:50:37.119Z,4.17
2019-06-08T21:52:38.709Z,5.50
2019-06-08T21:54:40.104Z,4.67
2019-06-08T21:56:41.522Z,3.90
2019-06-08T21:58:42.897Z,3.93
2019-06-08T22:00:47.150Z,4.40
2019-06-08T22:02:49.730Z,5.30
2019-06-08T22:04:54.656Z,3.53
2019-06-08T22:06:54.433Z,4.70
2019-06-08T22:08:58.866Z,3.97
2019-06-08T22:11:00.637Z,4.13
2019-06-08T22:13:03.047Z,4.07
2019-06-08T22:15:07.484Z,3.83
2019-06-08T22:17:09.172Z,4.27
2019-06-08T22:19:10.783Z,4.27
2019-06-08T22:21:12.193Z,4.10
2019-06-08T22:23:13.547Z,3.43
2019-06-08T22:25:17.347Z,4.10
2019-06-08T22:27:18.433Z,4.97
2019-06-08T22:29:19.842Z,4.23
2019-06-08T22:31:23.118Z,4.30
2019-06-08T22:33:24.489Z,4.10
2019-06-08T22:35:27.571Z,4.50
2019-06-08T22:37:29.033Z,4.23
2019-06-08T22:39:30.445Z,7.73
2019-06-08T22:41:31.815Z,7.87
2019-06-08T22:43:33.220Z,6.40
2019-06-08T22:45:34.622Z,6.70
2019-06-08T22:47:38.470Z,5.73
2019-06-08T22:49:39.327Z,5.03
2019-06-08T22:51:40.701Z,6.00
2019-06-08T22:53:42.067Z,5.00
2019-06-08T22:55:43.478Z,6.00
2019-06-08T22:57:44.827Z,6.47
2019-06-08T22:59:47.705Z,4.60
2019-06-08T23:01:49.319Z,4.50
2019-06-08T23:03:50.689Z,4.73
2019-06-08T23:05:52.068Z,5.77
2019-06-08T23:07:54.788Z,3.97
2019-06-08T23:09:59.931Z,3.70
2019-06-08T23:12:05.205Z,3.57
2019-06-08T23:14:13.006Z,3.50
2019-06-08T23:16:10.056Z,3.90
2019-06-08T23:18:11.533Z,4.30
2019-06-08T23:20:13.144Z,3.73
2019-06-08T23:22:14.672Z,4.10
2019-06-08T23:24:18.043Z,3.77
2019-06-08T23:26:19.409Z,3.80
2019-06-08T23:28:20.810Z,3.63
2019-06-08T23:30:22.203Z,3.23
2019-06-08T23:32:23.582Z,3.47
2019-06-08T23:34:27.516Z,3.60
2019-06-08T23:36:46.675Z,4.00
2019-06-08T23:38:31.611Z,3.80
2019-06-08T23:40:33.005Z,3.80
2019-06-08T23:42:38.267Z,4.53
2019-06-08T23:44:42.639Z,4.33
2019-06-08T23:46:44.054Z,3.30
2019-06-08T23:48:48.140Z,4.23
2019-06-08T23:50:48.764Z,4.40
2019-06-08T23:52:50.142Z,3.80
2019-06-08T23:54:51.521Z,4.13
2019-06-08T23:56:52.939Z,4.20
2019-06-08T23:58:54.320Z,4.10
